Time;durP1;ratioP1;P1;durP2;ratioP2;P2;SDS_P1;SDS_P2;PMS_P1;PMS_P2;Temp;Humidity;BMP_temperature;BMP_pressure;BME280_temperature;BME280_humidity;BME280_pressure;Samples;Min_cycle;Max_cycle;Signal;HPM_P1;HPM_P2
2022/07/11 00:02:20;;;;;;;7.65;2.72;;;18.10;78.10;;;;;;4993649;28;20109;-38
2022/07/11 00:04:46;;;;;;;10.15;2.53;;;18.10;78.10;;;;;;4993330;28;20049;-38
2022/07/11 00:07:12;;;;;;;10.57;2.72;;;18.10;78.10;;;;;;4993951;28;20027;-38
2022/07/11 00:09:39;;;;;;;9.30;3.75;;;17.90;78.30;;;;;;4993867;28;20023;-38
2022/07/11 00:12:06;;;;;;;7.43;3.53;;;17.90;78.70;;;;;;4993614;28;20023;-38
2022/07/11 00:14:31;;;;;;;11.90;3.95;;;18.00;78.70;;;;;;4993579;28;20026;-38
2022/07/11 00:16:57;;;;;;;6.18;2.55;;;17.80;79.10;;;;;;4992395;28;20064;-37
2022/07/11 00:19:23;;;;;;;6.07;2.53;;;17.80;79.40;;;;;;4993425;28;20169;-38
2022/07/11 00:21:50;;;;;;;7.65;3.15;;;17.80;79.50;;;;;;4993469;28;20053;-38
2022/07/11 00:24:20;;;;;;;3.85;3.10;;;17.80;79.60;;;;;;4993501;28;20053;-38
2022/07/11 00:26:47;;;;;;;3.58;2.58;;;17.80;79.40;;;;;;4993734;28;20023;-38
2022/07/11 00:29:13;;;;;;;4.82;3.28;;;17.90;79.30;;;;;;4993565;28;20058;-38
2022/07/11 00:31:39;;;;;;;7.72;3.70;;;17.90;79.30;;;;;;4993318;28;20054;-38
2022/07/11 00:34:04;;;;;;;4.28;2.90;;;17.80;79.50;;;;;;4993452;28;20026;-38
2022/07/11 00:36:31;;;;;;;7.10;2.75;;;17.80;79.60;;;;;;4993762;28;20018;-39
2022/07/11 00:38:57;;;;;;;4.72;2.78;;;17.80;79.80;;;;;;4993583;28;20045;-40
2022/07/11 00:41:23;;;;;;;6.82;2.88;;;17.70;79.80;;;;;;4993227;28;20084;-38
2022/07/11 00:43:59;;;;;;;8.63;2.47;;;17.50;80.10;;;;;;4993300;28;20105;-38
2022/07/11 00:46:27;;;;;;;3.30;2.42;;;17.40;80.60;;;;;;4993283;28;20022;-37
2022/07/11 00:48:53;;;;;;;7.82;2.95;;;17.30;81.50;;;;;;4993564;28;20101;-38
2022/07/11 00:51:20;;;;;;;4.10;2.47;;;17.30;81.50;;;;;;4995275;28;20380;-40
2022/07/11 00:53:51;;;;;;;4.22;2.30;;;17.20;81.90;;;;;;4997440;28;20037;-38
2022/07/11 00:56:21;;;;;;;8.32;2.92;;;17.10;82.00;;;;;;4997360;28;20022;-39
2022/07/11 00:58:48;;;;;;;4.55;2.42;;;17.00;82.30;;;;;;4995558;28;20394;-38
2022/07/11 01:01:14;;;;;;;9.35;4.47;;;16.90;82.80;;;;;;4996742;28;20058;-39
2022/07/11 01:03:39;;;;;;;7.80;2.88;;;16.80;83.20;;;;;;4996689;28;20082;-38
2022/07/11 01:06:06;;;;;;;14.00;3.67;;;16.80;83.40;;;;;;4996940;28;20463;-38
2022/07/11 01:08:37;;;;;;;8.38;3.03;;;16.90;83.40;;;;;;4996587;28;20426;-38
2022/07/11 01:11:04;;;;;;;5.50;3.63;;;16.90;83.20;;;;;;4996657;28;20026;-38
2022/07/11 01:13:33;;;;;;;10.25;3.97;;;16.80;83.90;;;;;;4996606;28;20466;-38
2022/07/11 01:16:14;;;;;;;5.30;2.88;;;16.70;84.10;;;;;;4996841;28;20092;-44
2022/07/11 01:18:45;;;;;;;10.10;3.10;;;16.60;84.40;;;;;;4996680;28;20068;-39
2022/07/11 01:21:31;;;;;;;5.53;2.88;;;16.70;84.30;;;;;;4996554;28;20121;-39
2022/07/11 01:23:59;;;;;;;5.75;3.67;;;16.80;84.60;;;;;;4995933;28;20034;-38
2022/07/11 01:26:25;;;;;;;7.57;2.95;;;16.80;84.00;;;;;;4994987;28;20034;-39
2022/07/11 01:28:52;;;;;;;9.13;3.17;;;16.80;84.30;;;;;;4994998;28;20470;-40
2022/07/11 01:31:19;;;;;;;7.95;2.90;;;16.80;84.00;;;;;;4996317;28;20034;-40
2022/07/11 01:33:44;;;;;;;4.00;3.03;;;16.80;84.10;;;;;;4996444;28;20447;-38
2022/07/11 01:36:10;;;;;;;10.75;3.40;;;16.90;83.60;;;;;;4996889;28;20030;-38
2022/07/11 01:38:36;;;;;;;6.80;2.70;;;16.90;83.60;;;;;;4996305;28;20041;-38
2022/07/11 01:41:02;;;;;;;5.25;2.92;;;17.00;83.40;;;;;;4996050;28;20030;-39
2022/07/11 01:43:29;;;;;;;10.70;3.08;;;17.10;82.90;;;;;;4996214;28;20129;-38
2022/07/11 01:45:55;;;;;;;4.35;3.08;;;17.00;83.00;;;;;;4996016;28;20442;-39
2022/07/11 01:48:21;;;;;;;5.40;2.75;;;17.00;83.30;;;;;;4995998;28;20375;-39
2022/07/11 01:50:48;;;;;;;4.25;2.60;;;17.00;82.80;;;;;;4996057;28;20088;-40
2022/07/11 01:53:14;;;;;;;4.95;2.35;;;16.90;83.40;;;;;;4995893;28;20033;-38
2022/07/11 01:55:40;;;;;;;14.50;4.10;;;17.00;83.40;;;;;;4996039;28;20039;-40
2022/07/11 01:58:06;;;;;;;8.43;3.00;;;17.10;83.30;;;;;;4995775;28;20034;-39
2022/07/11 02:00:31;;;;;;;7.78;3.30;;;17.00;83.30;;;;;;4996014;28;20045;-38
2022/07/11 02:02:57;;;;;;;9.02;3.47;;;17.10;83.10;;;;;;4994523;28;20085;-39
2022/07/11 02:05:23;;;;;;;11.55;3.20;;;17.20;82.80;;;;;;4995630;28;20430;-38
2022/07/11 02:10:33;;;;;;;6.70;3.58;;;17.20;82.60;;;;;;4996168;28;20149;-38
2022/07/11 02:13:00;;;;;;;8.70;3.97;;;17.10;82.90;;;;;;4995830;28;20039;-38
2022/07/11 02:15:26;;;;;;;8.52;5.78;;;17.10;83.00;;;;;;4995575;28;20479;-38
2022/07/11 02:17:52;;;;;;;7.05;4.03;;;17.30;82.60;;;;;;4995662;28;20050;-38
2022/07/11 02:20:20;;;;;;;8.00;3.88;;;17.20;82.60;;;;;;4995429;28;20076;-38
2022/07/11 02:22:48;;;;;;;11.63;4.38;;;17.20;82.80;;;;;;4995451;28;20034;-39
2022/07/11 02:25:17;;;;;;;14.30;5.10;;;17.30;82.60;;;;;;4995704;28;20031;-39
2022/07/11 02:27:43;;;;;;;14.73;5.40;;;17.30;82.30;;;;;;4995773;28;20065;-39
2022/07/11 02:30:10;;;;;;;11.75;5.55;;;17.30;82.20;;;;;;4996166;28;20023;-44
2022/07/11 02:32:36;;;;;;;7.78;4.90;;;17.30;82.20;;;;;;4996097;28;20030;-40
2022/07/11 02:35:02;;;;;;;14.35;6.22;;;17.20;82.90;;;;;;4996416;28;20494;-40
2022/07/11 02:37:27;;;;;;;17.30;5.10;;;17.20;83.00;;;;;;4996333;28;20053;-39
2022/07/11 02:39:53;;;;;;;9.60;5.10;;;17.20;82.90;;;;;;4996043;28;20528;-43
2022/07/11 02:42:19;;;;;;;15.20;5.28;;;17.30;83.10;;;;;;4995600;28;20030;-39
2022/07/11 02:44:45;;;;;;;6.75;4.07;;;17.30;82.70;;;;;;4995219;28;20049;-38
2022/07/11 02:47:11;;;;;;;10.25;4.70;;;17.10;83.20;;;;;;4995358;28;20165;-38
2022/07/11 02:49:37;;;;;;;8.13;3.88;;;17.20;83.20;;;;;;4995490;28;20054;-37
2022/07/11 02:52:03;;;;;;;9.48;3.60;;;17.20;83.20;;;;;;4995251;28;20096;-38
2022/07/11 02:54:29;;;;;;;5.80;3.42;;;17.10;83.50;;;;;;4994755;28;20038;-38
2022/07/11 02:56:55;;;;;;;6.28;3.50;;;17.10;83.50;;;;;;4993338;28;20031;-38
2022/07/11 02:59:21;;;;;;;8.82;4.78;;;17.10;83.90;;;;;;4995763;28;20106;-38
2022/07/11 03:01:47;;;;;;;7.38;3.92;;;17.10;83.50;;;;;;4978010;28;20030;-38
2022/07/11 03:04:13;;;;;;;7.65;3.08;;;17.20;83.40;;;;;;4993848;28;20042;-38
2022/07/11 03:06:39;;;;;;;8.10;3.70;;;17.20;83.50;;;;;;4994797;28;20486;-38
2022/07/11 03:09:06;;;;;;;7.00;3.03;;;17.10;83.30;;;;;;4994660;28;20053;-37
2022/07/11 03:11:32;;;;;;;7.35;2.95;;;17.10;83.80;;;;;;4977337;28;20022;-37
2022/07/11 03:14:00;;;;;;;5.72;3.10;;;17.20;83.70;;;;;;4994141;28;20033;-37
2022/07/11 20:09:42;;;;;;;1.73;1.00;;;;;;;;;;5113058;27;20409;-40
2022/07/11 20:12:08;;;;;;;2.35;1.60;;;;;;;;;;5110134;28;20042;-38
2022/07/11 20:14:34;;;;;;;2.30;1.45;;;;;;;;;;5110134;28;20020;-40
2022/07/11 20:17:00;;;;;;;1.05;0.95;;;;;;;;;;5110374;28;20024;-40
2022/07/11 20:19:26;;;;;;;5.00;1.92;;;;;;;;;;5110947;28;20042;-45
2022/07/11 20:21:53;;;;;;;2.40;1.48;;;;;;;;;;5110783;28;20443;-39
2022/07/11 20:24:19;;;;;;;1.58;1.17;;;;;;;;;;5111072;28;20035;-39
2022/07/11 20:26:45;;;;;;;1.15;0.80;;;;;;;;;;5110862;28;20028;-49
2022/07/11 20:29:11;;;;;;;2.42;1.25;;;;;;;;;;5110446;28;20045;-47
2022/07/11 20:31:37;;;;;;;2.60;1.13;;;;;;;;;;5110763;28;20380;-46
2022/07/11 20:34:03;;;;;;;3.75;1.33;;;;;;;;;;5111934;28;20035;-46
2022/07/11 20:36:29;;;;;;;1.45;1.30;;;;;;;;;;5112794;28;20417;-47
2022/07/11 20:38:55;;;;;;;1.67;1.58;;;;;;;;;;5114489;28;20058;-46
2022/07/11 20:41:22;;;;;;;1.02;0.93;;;;;;;;;;5115393;28;20085;-48
2022/07/11 20:43:49;;;;;;;1.13;1.02;;;;;;;;;;5114680;28;20023;-47
2022/07/11 20:46:15;;;;;;;1.52;0.75;;;;;;;;;;5114504;28;20062;-47
2022/07/11 20:48:42;;;;;;;2.72;1.30;;;;;;;;;;5112949;28;20028;-48
2022/07/11 20:51:09;;;;;;;1.45;1.33;;;;;;;;;;5111803;28;20019;-48
2022/07/11 20:53:35;;;;;;;1.73;1.10;;;;;;;;;;5108848;28;20016;-50
2022/07/11 20:56:01;;;;;;;2.33;1.40;;;;;;;;;;5110358;28;20020;-52
2022/07/11 20:58:28;;;;;;;1.77;1.33;;;;;;;;;;5110230;28;20384;-47
2022/07/11 21:00:55;;;;;;;6.05;1.80;;;;;;;;;;5110193;28;20027;-46
2022/07/11 21:03:21;;;;;;;1.42;1.17;;;;;;;;;;5109933;28;20157;-47
2022/07/11 21:05:47;;;;;;;2.45;1.75;;;;;;;;;;5108681;28;20131;-46
2022/07/11 21:08:14;;;;;;;1.77;1.20;;;;;;;;;;5108622;28;20051;-48
2022/07/11 21:10:40;;;;;;;2.35;1.65;;;;;;;;;;5109862;28;20023;-48
2022/07/11 21:13:06;;;;;;;2.08;1.42;;;;;;;;;;5109631;28;20025;-50
2022/07/11 21:15:32;;;;;;;1.30;1.13;;;;;;;;;;5109977;28;20169;-46
2022/07/11 21:17:58;;;;;;;1.52;1.17;;;;;;;;;;5108716;28;20383;-48
2022/07/11 21:20:24;;;;;;;4.93;1.20;;;;;;;;;;5100335;28;20054;-46
2022/07/11 21:22:51;;;;;;;1.17;0.85;;;;;;;;;;5096307;28;20110;-46
2022/07/11 21:25:17;;;;;;;3.05;1.73;;;;;;;;;;5096141;28;20024;-47
2022/07/11 21:27:43;;;;;;;3.40;1.40;;;;;;;;;;5096421;28;20548;-46
2022/07/11 21:30:09;;;;;;;1.98;1.45;;;;;;;;;;5096154;28;20028;-47
2022/07/11 21:32:35;;;;;;;7.05;1.48;;;;;;;;;;5096000;28;20089;-47
2022/07/11 21:35:01;;;;;;;1.95;1.10;;;;;;;;;;5095889;28;20467;-48
2022/07/11 21:37:29;;;;;;;34.28;20.27;;;;;;;;;;5095876;28;20024;-47
2022/07/11 21:39:56;;;;;;;2.45;2.25;;;;;;;;;;5095528;28;20050;-47
2022/07/11 21:42:22;;;;;;;4.95;1.30;;;;;;;;;;5097138;28;20050;-47
2022/07/11 21:44:48;;;;;;;2.22;1.45;;;;;;;;;;5094447;28;20077;-48
2022/07/11 21:47:14;;;;;;;4.80;1.67;;;;;;;;;;5095683;28;20027;-48
2022/07/11 21:49:40;;;;;;;1.65;1.38;;;;;;;;;;5095454;28;20039;-48
2022/07/11 21:52:06;;;;;;;1.45;1.17;;;;;;;;;;5095227;28;20103;-48
2022/07/11 21:54:32;;;;;;;2.05;1.65;;;;;;;;;;5095336;28;20452;-51
2022/07/11 21:56:58;;;;;;;3.15;1.42;;;17.70;84.50;;;;;;5095686;28;20492;-47
2022/07/11 21:59:24;;;;;;;4.53;2.05;;;17.70;84.50;;;;;;5095197;28;20073;-47
2022/07/11 22:01:49;;;;;;;2.75;1.40;;;17.50;85.00;;;;;;5095365;28;20023;-50
2022/07/11 22:04:15;;;;;;;2.45;0.85;;;17.40;85.40;;;;;;5095161;28;20020;-46
2022/07/11 22:06:41;;;;;;;1.30;1.00;;;17.40;85.70;;;;;;5095337;28;20035;-48
2022/07/11 22:09:07;;;;;;;2.45;1.25;;;17.40;85.80;;;;;;5095160;28;20048;-48
2022/07/11 22:11:32;;;;;;;3.58;1.88;;;17.30;85.90;;;;;;5094405;28;20028;-48
2022/07/11 22:13:58;;;;;;;1.95;1.38;;;17.30;86.10;;;;;;5095240;28;20024;-47
2022/07/11 22:16:24;;;;;;;1.55;1.45;;;17.30;86.30;;;;;;5094809;28;20020;-47
2022/07/11 22:18:49;;;;;;;2.25;1.52;;;17.30;86.50;;;;;;5094822;28;20035;-47
2022/07/11 22:21:15;;;;;;;3.88;2.15;;;17.30;86.40;;;;;;5095015;28;20096;-48
2022/07/11 22:23:41;;;;;;;2.47;1.65;;;17.30;86.40;;;;;;5101609;28;20024;-47
2022/07/11 22:26:06;;;;;;;4.70;1.90;;;17.30;86.40;;;;;;5095819;28;20028;-46
2022/07/11 22:28:32;;;;;;;2.20;1.95;;;17.30;86.30;;;;;;5094676;28;20205;-48
2022/07/11 22:30:58;;;;;;;3.28;2.05;;;17.30;86.30;;;;;;5092782;28;20115;-48
2022/07/11 22:33:24;;;;;;;3.25;2.50;;;17.30;86.30;;;;;;5094495;28;20384;-47
2022/07/11 22:35:50;;;;;;;3.47;2.42;;;17.30;86.30;;;;;;5094875;28;20027;-54
2022/07/11 22:38:16;;;;;;;3.72;2.13;;;17.30;86.20;;;;;;5094788;28;20024;-47
2022/07/11 22:40:42;;;;;;;5.57;1.85;;;17.40;86.20;;;;;;5059923;28;20055;-47
2022/07/11 22:43:10;;;;;;;3.10;1.90;;;17.40;86.10;;;;;;5094698;28;20031;-48
2022/07/11 22:45:47;;;;;;;2.90;1.80;;;17.50;85.80;;;;;;5094506;28;20112;-46
2022/07/11 22:48:14;;;;;;;3.55;2.85;;;17.50;85.80;;;;;;5093615;28;20480;-46
2022/07/11 22:50:39;;;;;;;3.13;2.30;;;17.40;85.40;;;;;;5093539;28;20024;-47
2022/07/11 22:53:05;;;;;;;7.70;4.40;;;17.30;85.80;;;;;;5094501;28;20520;-48
2022/07/11 22:55:31;;;;;;;3.55;2.45;;;17.30;86.00;;;;;;5094360;28;20034;-47
2022/07/11 22:57:57;;;;;;;3.97;2.45;;;17.20;86.30;;;;;;5094299;28;20495;-48
2022/07/11 23:00:24;;;;;;;1.70;1.52;;;17.00;86.50;;;;;;5076499;28;20036;-47
2022/07/11 23:02:50;;;;;;;5.20;1.77;;;16.90;86.80;;;;;;5094409;28;20024;-48
2022/07/11 23:05:16;;;;;;;2.17;1.42;;;16.80;87.00;;;;;;5094681;28;20154;-47
2022/07/11 23:07:42;;;;;;;4.78;1.50;;;16.80;87.20;;;;;;5093797;28;20531;-46
2022/07/11 23:10:08;;;;;;;2.65;1.75;;;16.80;87.40;;;;;;5092826;28;20483;-47
2022/07/11 23:12:34;;;;;;;1.65;1.30;;;16.80;87.60;;;;;;5093947;28;20016;-47
2022/07/11 23:14:59;;;;;;;2.72;1.42;;;16.70;87.80;;;;;;5094168;28;20417;-48
2022/07/11 23:17:26;;;;;;;2.58;1.80;;;16.70;87.90;;;;;;5076774;28;20380;-49
2022/07/11 23:19:51;;;;;;;2.47;1.40;;;16.60;87.90;;;;;;5094235;28;20046;-47
2022/07/11 23:22:18;;;;;;;3.00;1.35;;;16.50;88.10;;;;;;5093763;28;20502;-47
2022/07/11 23:24:43;;;;;;;1.73;1.42;;;16.50;88.30;;;;;;5093835;28;20043;-47
2022/07/11 23:27:09;;;;;;;1.80;1.50;;;16.50;88.50;;;;;;5093882;28;20036;-47
2022/07/11 23:29:35;;;;;;;2.13;1.67;;;16.40;88.50;;;;;;5094121;28;20445;-47
2022/07/11 23:32:01;;;;;;;1.40;1.20;;;16.40;88.60;;;;;;5092534;28;20387;-51
2022/07/11 23:34:27;;;;;;;5.95;4.35;;;16.40;88.70;;;;;;5092674;28;20137;-48
2022/07/11 23:36:53;;;;;;;2.33;2.08;;;16.40;88.80;;;;;;5094031;28;20028;-51
2022/07/11 23:39:19;;;;;;;2.80;2.15;;;16.40;88.80;;;;;;5092129;28;20387;-48
2022/07/11 23:41:45;;;;;;;2.70;1.95;;;16.40;88.90;;;;;;5093603;28;20031;-48
2022/07/11 23:44:10;;;;;;;2.33;2.03;;;16.40;88.80;;;;;;5093479;28;20539;-49
2022/07/11 23:46:36;;;;;;;1.92;1.55;;;16.30;88.90;;;;;;5092063;28;20028;-48
2022/07/11 23:49:02;;;;;;;1.80;1.48;;;16.30;88.90;;;;;;5093202;28;20076;-51
2022/07/11 23:51:27;;;;;;;1.52;1.40;;;16.40;89.00;;;;;;5093310;28;20028;-48
2022/07/11 23:53:53;;;;;;;2.42;1.75;;;16.30;88.90;;;;;;5093661;28;20402;-48
2022/07/11 23:56:18;;;;;;;1.92;1.70;;;16.30;88.90;;;;;;5093491;28;20027;-47
2022/07/11 23:58:44;;;;;;;4.95;2.63;;;16.30;88.90;;;;;;5093476;28;20028;-46
